Time;durP1;ratioP1;P1;durP2;ratioP2;P2;SDS_P1;SDS_P2;PMS_P1;PMS_P2;Temp;Humidity;BMP_temperature;BMP_pressure;BME280_temperature;BME280_humidity;BME280_pressure;Samples;Min_cycle;Max_cycle;Signal;HPM_P1;HPM_P2
2022/06/19 00:00:23;;;;;;;4.80;4.33;;;;;;;19.65;86.92;99891.91;5012087;28;20658;-72
2022/06/19 00:02:50;;;;;;;5.77;5.10;;;;;;;19.63;86.75;99885.91;5012896;28;20197;-72
2022/06/19 00:05:18;;;;;;;5.53;4.90;;;;;;;19.58;86.48;99888.53;5012174;28;20223;-72
2022/06/19 00:07:45;;;;;;;5.57;5.10;;;;;;;19.55;87.16;99889.03;5012370;28;20272;-72
2022/06/19 00:10:12;;;;;;;5.80;5.40;;;;;;;19.28;86.66;99874.56;5012841;28;20234;-73
2022/06/19 00:12:40;;;;;;;6.43;5.00;;;;;;;19.12;89.31;99888.78;5015071;28;20655;-72
2022/06/19 00:15:08;;;;;;;11.13;5.93;;;;;;;19.14;89.37;99883.94;5016026;28;20186;-72
2022/06/19 00:17:35;;;;;;;6.77;5.80;;;;;;;19.29;88.45;99895.88;5016341;28;20219;-72
2022/06/19 00:20:03;;;;;;;6.77;5.30;;;;;;;19.39;88.39;99895.22;5015838;28;20194;-72
2022/06/19 00:22:31;;;;;;;6.23;4.97;;;;;;;19.42;87.42;99890.16;5015916;28;20251;-71
2022/06/19 00:24:58;;;;;;;6.77;5.43;;;;;;;19.15;88.47;99885.63;5015561;28;20727;-71
2022/06/19 00:27:25;;;;;;;5.90;5.23;;;;;;;18.88;89.33;99877.31;5015955;28;20227;-71
2022/06/19 00:29:52;;;;;;;5.57;5.03;;;;;;;18.80;90.33;99874.16;5017119;28;20197;-73
2022/06/19 00:32:20;;;;;;;5.80;5.20;;;;;;;18.82;90.23;99883.63;5025143;28;20205;-72
2022/06/19 00:34:47;;;;;;;7.73;5.17;;;;;;;18.99;89.66;99878.31;5023557;28;20200;-72
2022/06/19 00:37:14;;;;;;;5.77;5.37;;;;;;;19.05;89.12;99878.16;5016196;28;20206;-72
2022/06/19 00:39:42;;;;;;;5.93;5.40;;;;;;;19.02;88.49;99881.31;5015580;28;20198;-72
2022/06/19 00:42:12;;;;;;;8.47;5.30;;;;;;;19.03;88.36;99868.69;5016157;28;20214;-72
2022/06/19 00:44:39;;;;;;;5.60;5.20;;;;;;;19.05;89.39;99871.94;5015731;28;20244;-72
2022/06/19 00:47:14;;;;;;;6.00;5.50;;;;;;;19.07;88.05;99875.22;5015647;28;20221;-71
2022/06/19 00:49:48;;;;;;;10.43;5.07;;;;;;;18.90;88.76;99877.84;5015450;28;20192;-73
2022/06/19 00:52:18;;;;;;;5.63;5.07;;;;;;;18.98;89.05;99876.66;5016535;28;20243;-73
2022/06/19 00:54:52;;;;;;;6.17;5.67;;;;;;;19.00;88.63;99875.38;5016640;28;20279;-72
2022/06/19 00:57:20;;;;;;;5.00;4.70;;;;;;;18.93;88.69;99879.25;5015569;28;20581;-73
2022/06/19 00:59:52;;;;;;;4.80;4.50;;;;;;;18.97;89.38;99875.03;5015106;28;20685;-73
2022/06/19 01:02:19;;;;;;;7.97;5.17;;;;;;;18.90;88.46;99874.34;5015380;28;20185;-73
2022/06/19 01:04:51;;;;;;;5.57;5.17;;;;;;;18.74;88.77;99870.53;5015098;28;20662;-73
2022/06/19 01:07:19;;;;;;;5.50;5.00;;;;;;;18.74;89.96;99870.53;5016250;28;20214;-73
2022/06/19 01:09:47;;;;;;;5.53;5.00;;;;;;;18.79;90.84;99872.53;5015108;28;20194;-73
2022/06/19 01:12:14;;;;;;;8.07;5.10;;;;;;;18.80;89.35;99879.53;5014807;28;20194;-72
2022/06/19 01:14:44;;;;;;;5.23;4.87;;;;;;;18.71;89.87;99881.78;5015031;28;20232;-72
2022/06/19 01:17:12;;;;;;;5.33;5.03;;;;;;;18.77;89.51;99874.63;5014864;28;20666;-72
2022/06/19 01:19:41;;;;;;;5.40;4.97;;;;;;;18.80;90.64;99875.00;5015197;28;20200;-72
2022/06/19 01:22:17;;;;;;;6.03;5.53;;;;;;;18.51;90.79;99876.00;5015213;28;20258;-72
2022/06/19 01:25:03;;;;;;;6.10;5.60;;;;;;;18.42;92.36;99879.31;5015251;28;20272;-72
2022/06/19 01:30:17;;;;;;;5.57;5.17;;;;;;;18.27;91.99;99882.47;5015326;28;20307;-72
2022/06/19 01:32:49;;;;;;;5.10;4.80;;;;;;;18.28;91.61;99875.19;5014613;28;20679;-72
2022/06/19 01:35:17;;;;;;;5.53;5.23;;;;;;;18.20;92.04;99872.84;5014625;28;20722;-72
2022/06/19 01:37:45;;;;;;;6.00;5.40;;;;;;;18.14;93.33;99880.03;5015290;28;20202;-71
2022/06/19 01:40:19;;;;;;;5.10;4.70;;;;;;;18.33;93.27;99878.00;5014786;28;20197;-72
2022/06/19 01:42:46;;;;;;;4.80;4.40;;;;;;;18.40;92.94;99879.53;5015009;28;20312;-72
2022/06/19 01:45:13;;;;;;;5.57;5.03;;;;;;;18.48;91.82;99879.16;5014696;28;20254;-72
2022/06/19 01:47:41;;;;;;;5.27;4.90;;;;;;;18.58;92.34;99881.25;5014587;28;20218;-72
2022/06/19 01:50:11;;;;;;;5.60;5.10;;;;;;;18.57;91.25;99884.97;5015356;28;20253;-71
2022/06/19 01:52:38;;;;;;;5.47;5.03;;;;;;;18.64;90.82;99888.38;5014525;28;20200;-71
2022/06/19 01:55:08;;;;;;;5.47;4.97;;;;;;;18.71;91.92;99886.38;5014386;28;20317;-72
2022/06/19 01:57:40;;;;;;;5.83;5.33;;;;;;;18.80;91.00;99895.69;5015165;28;20347;-72
2022/06/19 02:00:09;;;;;;;6.57;5.00;;;;;;;18.87;90.70;99893.69;5014178;28;20278;-71
2022/06/19 02:02:37;;;;;;;5.90;5.40;;;;;;;18.74;90.74;99894.78;5014334;28;20219;-72
2022/06/19 02:05:04;;;;;;;5.83;5.33;;;;;;;18.69;91.14;99889.28;5014343;28;20198;-72
2022/06/19 02:07:32;;;;;;;5.17;4.77;;;;;;;18.42;91.75;99898.13;5013900;28;20702;-72
2022/06/19 02:10:01;;;;;;;6.07;5.73;;;;;;;18.50;92.74;99889.69;5013819;28;20197;-72
2022/06/19 02:12:30;;;;;;;7.10;6.60;;;;;;;18.73;91.82;99889.63;5013734;28;20718;-71
2022/06/19 02:15:00;;;;;;;6.77;6.03;;;;;;;18.84;90.68;99888.78;5014069;28;20253;-71
2022/06/19 02:17:33;;;;;;;6.40;5.90;;;;;;;18.82;89.62;99888.19;5014063;28;20238;-72
2022/06/19 02:20:00;;;;;;;6.57;5.97;;;;;;;18.70;90.89;99893.63;5014623;28;20249;-72
2022/06/19 02:22:27;;;;;;;7.60;5.87;;;;;;;18.83;89.82;99896.03;5014096;28;20281;-72
2022/06/19 02:24:53;;;;;;;7.67;5.83;;;;;;;18.95;89.81;99896.00;5013593;28;20732;-72
2022/06/19 02:27:20;;;;;;;6.50;6.07;;;;;;;19.04;88.80;99897.25;5014295;28;20573;-72
2022/06/19 02:29:48;;;;;;;6.47;5.90;;;;;;;19.03;88.70;99890.22;5014216;28;20194;-72
2022/06/19 02:32:21;;;;;;;7.70;5.97;;;;;;;19.10;89.19;99893.56;5013447;28;20213;-72
2022/06/19 02:34:50;;;;;;;7.13;5.47;;;;;;;19.04;88.56;99897.25;5013207;28;20704;-72
2022/06/19 02:37:21;;;;;;;6.33;5.90;;;;;;;18.91;89.50;99902.91;5013665;28;20198;-72
2022/06/19 02:39:55;;;;;;;6.33;5.70;;;;;;;18.82;89.32;99898.94;5013382;28;20650;-72
2022/06/19 02:42:33;;;;;;;5.43;5.03;;;;;;;18.95;89.91;99904.88;5013367;28;20190;-72
2022/06/19 02:45:05;;;;;;;6.00;5.27;;;;;;;18.87;88.61;99899.06;5013324;28;20252;-71
2022/06/19 02:47:35;;;;;;;5.73;5.27;;;;;;;18.84;88.62;99897.69;5013271;28;20685;-71
2022/06/19 02:50:04;;;;;;;6.07;5.63;;;;;;;18.82;89.03;99905.16;5013416;28;20221;-72
2022/06/19 02:52:31;;;;;;;5.83;5.30;;;;;;;18.92;89.80;99907.25;5014220;28;20197;-71
2022/06/19 02:54:58;;;;;;;4.77;4.53;;;;;;;18.86;90.05;99900.94;5013338;28;20248;-72
2022/06/19 02:57:26;;;;;;;5.53;5.03;;;;;;;18.89;90.40;99905.03;5013334;28;20198;-71
2022/06/19 02:59:53;;;;;;;6.23;5.63;;;;;;;18.86;89.18;99910.88;5013307;28;20212;-71
2022/06/19 03:02:20;;;;;;;5.67;5.13;;;;;;;18.89;89.34;99905.03;5013451;28;20550;-70
2022/06/19 03:04:51;;;;;;;5.90;5.37;;;;;;;18.65;89.19;99903.44;5013057;28;20190;-71
2022/06/19 03:07:18;;;;;;;6.37;5.83;;;;;;;18.60;89.63;99900.66;5013726;28;20210;-71
2022/06/19 03:09:45;;;;;;;6.37;5.87;;;;;;;18.58;90.57;99887.44;5012793;28;20200;-71
2022/06/19 03:12:12;;;;;;;6.40;5.93;;;;;;;18.81;90.15;99891.94;5012972;28;20541;-72
2022/06/19 03:14:39;;;;;;;6.60;6.10;;;;;;;19.23;88.06;99901.34;5013909;28;20195;-72
2022/06/19 03:17:06;;;;;;;8.33;5.93;;;;;;;19.45;86.07;99899.66;5013490;28;20200;-71
2022/06/19 03:19:34;;;;;;;6.10;5.67;;;;;;;19.31;85.66;99903.69;5012605;28;20198;-72
2022/06/19 03:22:02;;;;;;;6.87;6.27;;;;;;;19.15;86.41;99899.88;5012986;28;20288;-71
2022/06/19 03:24:29;;;;;;;6.10;5.60;;;;;;;19.15;86.22;99899.88;5012592;28;20200;-72
2022/06/19 03:26:55;;;;;;;7.60;5.57;;;;;;;19.19;86.70;99908.31;5012642;28;20221;-72
2022/06/19 03:29:22;;;;;;;6.83;6.23;;;;;;;19.25;87.16;99904.66;5012810;28;20203;-72
2022/06/19 03:31:49;;;;;;;6.30;5.83;;;;;;;19.27;85.98;99902.53;5012462;28;20254;-72
2022/06/19 03:34:16;;;;;;;6.60;6.00;;;;;;;19.25;85.81;99904.66;5012420;28;20198;-72
2022/06/19 03:36:42;;;;;;;7.53;6.13;;;;;;;19.15;86.01;99901.78;5013231;28;20562;-72
2022/06/19 03:39:10;;;;;;;6.47;5.97;;;;;;;19.09;86.79;99900.03;5012342;28;20254;-72
2022/06/19 03:41:37;;;;;;;7.57;6.87;;;;;;;19.14;87.07;99905.50;5012320;28;20205;-71
2022/06/19 03:44:05;;;;;;;6.57;6.07;;;;;;;19.25;87.07;99905.50;5012331;28;20205;-71
2022/06/19 03:46:32;;;;;;;10.47;6.50;;;;;;;19.22;86.33;99900.56;5011957;28;20284;-71
2022/06/19 03:48:59;;;;;;;7.53;6.80;;;;;;;18.96;86.91;99909.22;5012227;28;20606;-72
2022/06/19 03:51:27;;;;;;;7.43;6.93;;;;;;;18.80;87.59;99896.53;5012155;28;20682;-72
2022/06/19 03:53:55;;;;;;;6.43;5.93;;;;;;;18.61;88.49;99896.91;5012168;28;20202;-71
2022/06/19 03:56:25;;;;;;;7.23;6.57;;;;;;;18.54;88.67;99883.59;5012497;28;20193;-71
2022/06/19 03:58:53;;;;;;;7.30;6.80;;;;;;;18.70;89.03;99906.28;5012205;28;20646;-72
2022/06/19 04:01:22;;;;;;;5.97;5.60;;;;;;;18.67;88.54;99901.34;5012595;28;20608;-71
2022/06/19 04:03:50;;;;;;;6.67;6.13;;;;;;;19.54;86.70;99903.56;5012595;28;20617;-71
2022/06/19 04:06:19;;;;;;;6.07;5.77;;;;;;;20.62;81.42;99912.78;5012538;28;20198;-71
2022/06/19 04:08:46;;;;;;;5.33;5.03;;;;;;;21.81;75.56;99909.75;5011974;28;20612;-73
2022/06/19 04:11:14;;;;;;;9.93;5.57;;;;;;;23.03;69.51;99934.59;5012545;28;20233;-72
2022/06/19 04:13:42;;;;;;;6.40;5.33;;;;;;;24.02;67.09;99936.69;5012382;28;20284;-72
2022/06/19 04:16:14;;;;;;;4.60;4.30;;;;;;;25.00;62.71;99946.78;5012604;28;20198;-72
2022/06/19 04:18:41;;;;;;;4.87;4.33;;;;;;;25.83;58.94;99947.66;5012065;28;20654;-71
2022/06/19 04:21:13;;;;;;;4.20;4.00;;;;;;;26.37;57.63;99950.22;5012129;28;20208;-72
2022/06/19 04:23:40;;;;;;;5.90;4.27;;;;;;;27.03;54.61;99951.13;5012316;28;20182;-72
2022/06/19 04:26:08;;;;;;;5.13;4.50;;;;;;;27.52;52.29;99955.06;5012390;28;20198;-72
2022/06/19 04:28:35;;;;;;;4.63;4.30;;;;;;;28.01;50.82;99952.69;5011721;28;20756;-72
2022/06/19 04:31:03;;;;;;;6.00;4.20;;;;;;;28.00;50.06;99945.63;5011515;28;20198;-72
2022/06/19 04:33:30;;;;;;;4.53;4.33;;;;;;;28.71;48.67;99956.09;5012388;28;20281;-71
2022/06/19 04:35:57;;;;;;;4.47;4.17;;;;;;;29.18;47.30;99951.03;5012147;28;20201;-71
2022/06/19 04:38:24;;;;;;;5.27;4.43;;;;;;;29.53;46.28;99952.16;5011913;28;20252;-71
2022/06/19 04:40:51;;;;;;;4.27;3.83;;;;;;;29.63;46.56;99938.25;5011794;28;20201;-70
2022/06/19 04:43:18;;;;;;;11.73;3.30;;;;;;;29.97;45.66;99940.44;5011996;28;20198;-70
2022/06/19 04:45:44;;;;;;;3.60;3.30;;;;;;;30.38;43.96;99941.84;5011735;28;20256;-70
2022/06/19 04:48:13;;;;;;;3.20;3.00;;;;;;;30.71;43.00;99951.41;5012371;28;20229;-70
2022/06/19 04:50:40;;;;;;;4.90;3.27;;;;;;;31.04;42.30;99949.06;5011963;28;20282;-71
2022/06/19 04:53:07;;;;;;;7.23;3.27;;;;;;;31.30;41.54;99956.28;5011724;28;20682;-71
2022/06/19 04:55:34;;;;;;;5.83;3.40;;;;;;;31.75;40.21;99957.59;5011100;28;20643;-70
2022/06/19 04:58:02;;;;;;;4.73;3.77;;;;;;;31.96;39.15;99939.31;5013386;28;20194;-71
2022/06/19 05:00:29;;;;;;;3.40;3.20;;;;;;;31.97;38.95;99949.19;5004927;28;20286;-71
2022/06/19 05:02:55;;;;;;;12.23;3.47;;;;;;;32.24;39.32;99953.50;4995611;28;20206;-71
2022/06/19 05:05:25;;;;;;;3.67;3.13;;;;;;;32.36;39.06;99959.97;4995985;28;20246;-71
2022/06/19 05:07:52;;;;;;;9.17;3.37;;;;;;;32.49;38.53;99964.47;4995343;28;20753;-72
2022/06/19 05:10:18;;;;;;;5.97;3.43;;;;;;;32.97;36.71;99953.94;4995520;28;20257;-74
2022/06/19 05:12:45;;;;;;;5.40;3.50;;;;;;;32.88;37.44;99955.94;4995978;28;20222;-74
2022/06/19 05:15:12;;;;;;;4.10;3.80;;;;;;;33.28;36.91;99954.38;4995530;28;20187;-75
2022/06/19 05:17:39;;;;;;;6.90;3.73;;;;;;;33.39;36.84;99952.06;4995119;28;20249;-72
2022/06/19 05:20:09;;;;;;;3.97;3.77;;;;;;;33.38;37.04;99957.91;4995585;28;20632;-74
2022/06/19 05:22:37;;;;;;;4.07;3.67;;;;;;;33.71;36.43;99959.59;4996621;28;20191;-74
2022/06/19 05:25:08;;;;;;;3.83;3.27;;;;;;;33.81;36.01;99961.94;4995755;28;20226;-73
2022/06/19 05:27:36;;;;;;;4.97;4.20;;;;;;;33.44;36.31;99962.09;5012482;28;20218;-75
2022/06/19 05:30:04;;;;;;;4.43;3.60;;;;;;;32.82;37.10;99957.22;5012640;28;20277;-74
2022/06/19 05:32:31;;;;;;;3.80;3.60;;;;;;;32.74;37.84;99955.28;5012730;28;20202;-74
2022/06/19 05:34:57;;;;;;;4.40;4.10;;;;;;;32.92;37.13;99962.34;5014068;28;20639;-74
2022/06/19 05:37:25;;;;;;;4.13;3.90;;;;;;;32.79;37.45;99960.59;5013716;28;20561;-74
2022/06/19 05:39:53;;;;;;;3.97;3.67;;;;;;;32.74;37.67;99960.81;5013739;28;20284;-74
2022/06/19 05:42:20;;;;;;;5.90;3.60;;;;;;;32.62;37.98;99960.69;5013782;28;20198;-74
2022/06/19 05:44:46;;;;;;;4.93;3.63;;;;;;;32.81;37.63;99961.13;5013955;28;20198;-74
2022/06/19 05:47:13;;;;;;;3.80;3.50;;;;;;;33.05;36.99;99955.00;5014318;28;20268;-74
2022/06/19 05:49:40;;;;;;;4.10;3.80;;;;;;;32.77;37.99;99959.31;5015413;28;20495;-74
2022/06/19 05:52:15;;;;;;;3.40;3.20;;;;;;;32.99;37.16;99959.91;5015108;28;20264;-75
2022/06/19 05:54:42;;;;;;;4.20;3.17;;;;;;;32.98;36.89;99966.53;5015375;28;20248;-74
2022/06/19 05:57:10;;;;;;;14.83;4.07;;;;;;;33.11;37.25;99970.19;5014153;28;20198;-74
2022/06/19 05:59:37;;;;;;;3.77;3.20;;;;;;;33.15;37.31;99966.44;5014299;28;20201;-74
2022/06/19 06:02:05;;;;;;;3.63;2.87;;;;;;;33.25;37.37;99966.06;5012628;28;20564;-74
2022/06/19 06:04:32;;;;;;;3.40;3.10;;;;;;;33.29;37.64;99961.50;5005264;28;20197;-74
2022/06/19 06:06:58;;;;;;;7.73;3.93;;;;;;;33.64;35.67;99969.53;5002590;28;20615;-74
2022/06/19 06:09:25;;;;;;;2.97;2.73;;;;;;;33.42;35.98;99964.34;4994022;28;20257;-74
2022/06/19 06:11:52;;;;;;;6.67;3.50;;;;;;;33.36;36.32;99961.00;5010882;28;20638;-73
2022/06/19 06:14:21;;;;;;;3.90;3.53;;;;;;;33.53;35.90;99968.31;5013533;28;20288;-73
2022/06/19 06:16:48;;;;;;;5.50;3.23;;;;;;;33.35;36.13;99964.09;5013757;28;20661;-74
2022/06/19 06:19:14;;;;;;;3.83;3.10;;;;;;;32.84;36.45;99948.66;5006794;28;20690;-74
2022/06/19 06:21:42;;;;;;;3.43;3.23;;;;;;;32.81;37.06;99960.31;4994372;28;20253;-74
2022/06/19 06:24:10;;;;;;;3.17;2.97;;;;;;;32.40;37.34;99952.69;4993984;28;20195;-73
2022/06/19 06:26:37;;;;;;;3.83;3.60;;;;;;;32.32;38.35;99958.19;4994371;28;20203;-74
2022/06/19 06:29:04;;;;;;;3.30;3.20;;;;;;;32.39;38.24;99948.31;4994221;28;20249;-74
2022/06/19 06:31:32;;;;;;;4.00;3.30;;;;;;;32.50;37.45;99960.56;4993887;28;20194;-74
2022/06/19 06:33:59;;;;;;;3.70;3.40;;;;;;;32.36;37.42;99948.16;4993730;28;20190;-73
2022/06/19 06:36:26;;;;;;;3.27;3.17;;;;;;;32.30;37.80;99950.28;5001550;28;20546;-74
2022/06/19 06:38:53;;;;;;;3.50;3.27;;;;;;;32.42;38.01;99950.41;5013450;28;20634;-73
2022/06/19 06:41:20;;;;;;;2.93;2.83;;;;;;;32.57;36.39;99944.38;5013457;28;20268;-74
2022/06/19 06:43:47;;;;;;;3.20;3.00;;;;;;;32.37;37.92;99945.09;5013651;28;20198;-73
2022/06/19 06:46:18;;;;;;;3.47;3.27;;;;;;;32.68;36.79;99936.56;5013698;28;20194;-76
2022/06/19 06:48:47;;;;;;;3.10;3.00;;;;;;;32.78;37.12;99942.50;5013049;28;20685;-74
2022/06/19 06:51:15;;;;;;;3.03;2.93;;;;;;;32.86;36.51;99943.59;5013005;28;20198;-74
2022/06/19 06:53:43;;;;;;;3.40;3.10;;;;;;;33.09;36.35;99948.50;5012982;28;20653;-74
2022/06/19 06:56:10;;;;;;;3.57;3.27;;;;;;;33.09;37.09;99939.44;5012703;28;20575;-74
2022/06/19 06:58:38;;;;;;;3.80;3.50;;;;;;;32.72;36.37;99941.06;5013562;28;20572;-73
2022/06/19 07:01:09;;;;;;;4.00;3.57;;;;;;;32.64;37.38;99939.16;5012698;28;20248;-74
2022/06/19 07:03:36;;;;;;;3.80;3.40;;;;;;;32.59;37.23;99939.31;5012841;28;20252;-73
2022/06/19 07:06:04;;;;;;;4.13;3.37;;;;;;;32.77;36.80;99942.81;5011355;28;20670;-73
2022/06/19 07:08:31;;;;;;;4.10;3.10;;;;;;;32.86;36.75;99949.09;5012495;28;20221;-73
2022/06/19 07:10:58;;;;;;;3.60;3.30;;;;;;;33.11;36.92;99943.47;5001967;28;20195;-74
2022/06/19 07:13:24;;;;;;;3.60;3.30;;;;;;;33.18;35.56;99943.75;4992686;28;20726;-74
2022/06/19 07:15:52;;;;;;;6.80;3.50;;;;;;;33.28;36.02;99950.81;4993021;28;20261;-74
2022/06/19 07:18:18;;;;;;;12.13;3.83;;;;;;;33.35;34.85;99944.81;4993698;28;20203;-74
2022/06/19 07:20:45;;;;;;;10.33;3.43;;;;;;;33.48;34.10;99941.81;4992070;28;20202;-74
2022/06/19 07:23:14;;;;;;;3.10;2.83;;;;;;;33.64;34.66;99937.25;4993331;28;20194;-74
2022/06/19 07:25:40;;;;;;;4.82;2.58;;;;;;;33.83;34.17;99936.81;4992944;28;20194;-75
2022/06/19 07:28:07;;;;;;;2.85;2.75;;;;;;;33.99;33.88;99940.53;4992643;28;20237;-74
2022/06/19 07:30:34;;;;;;;3.45;3.00;;;;;;;34.09;33.92;99937.38;4992641;28;20629;-75
2022/06/19 07:33:01;;;;;;;3.05;2.85;;;;;;;34.05;32.64;99947.47;4992894;28;20261;-75
2022/06/19 07:35:28;;;;;;;3.00;2.80;;;;;;;34.18;31.84;99946.34;4992658;28;20631;-75
2022/06/19 07:37:55;;;;;;;3.20;2.60;;;;;;;34.04;31.69;99945.88;4992808;28;20199;-75
2022/06/19 07:40:25;;;;;;;8.27;2.83;;;;;;;34.02;31.84;99939.88;4993926;28;20199;-74
2022/06/19 07:42:52;;;;;;;2.50;2.38;;;;;;;34.02;31.72;99934.34;4992548;28;20742;-76
2022/06/19 07:45:18;;;;;;;3.35;3.15;;;;;;;34.03;30.80;99939.53;4992421;28;20195;-74
2022/06/19 07:50:30;;;;;;;3.00;2.17;;;;;;;33.42;31.58;99931.28;4992353;28;20220;-77
2022/06/19 07:52:57;;;;;;;2.70;2.23;;;;;;;33.40;32.48;99922.56;4993222;28;20190;-75
2022/06/19 07:55:27;;;;;;;2.00;1.80;;;;;;;33.36;29.27;99933.47;4991928;28;20265;-82
2022/06/19 07:57:54;;;;;;;2.50;2.40;;;;;;;32.61;29.90;99936.25;4995974;28;20206;-74
2022/06/19 08:00:23;;;;;;;2.80;1.93;;;;;;;32.32;30.23;99937.00;5011365;28;20201;-79
2022/06/19 08:02:52;;;;;;;6.57;2.57;;;;;;;32.23;31.40;99933.47;5009662;28;20259;-78
2022/06/19 08:05:19;;;;;;;2.03;1.77;;;;;;;32.31;29.27;99931.84;5013780;28;20205;-77
2022/06/19 08:07:48;;;;;;;2.03;1.63;;;;;;;32.44;30.46;99925.31;5021176;28;20189;-80
2022/06/19 08:10:20;;;;;;;2.10;2.00;;;;;;;31.33;31.64;99925.44;5022883;28;20190;-78
2022/06/19 08:12:48;;;;;;;1.83;1.73;;;;;;;30.40;32.87;99917.66;5010538;28;20221;-65
2022/06/19 08:15:15;;;;;;;2.23;1.70;;;;;;;31.11;33.43;99921.97;5021987;28;20283;-63
2022/06/19 08:17:42;;;;;;;3.97;1.97;;;;;;;31.65;32.65;99927.66;5018065;28;20276;-63
2022/06/19 08:20:11;;;;;;;2.17;1.97;;;;;;;31.97;31.79;99915.41;5002609;28;20305;-63
2022/06/19 08:22:39;;;;;;;1.93;1.87;;;;;;;31.92;30.89;99921.88;5029482;28;20276;-63
2022/06/19 08:25:06;;;;;;;1.70;1.60;;;;;;;31.64;30.10;99926.06;5030938;28;20673;-64
2022/06/19 08:27:33;;;;;;;4.20;1.53;;;;;;;31.92;30.01;99927.38;5031220;28;20722;-64
2022/06/19 08:30:01;;;;;;;1.87;1.77;;;;;;;31.77;29.82;99913.31;5022405;28;20279;-66
2022/06/19 08:32:27;;;;;;;3.73;2.10;;;;;;;31.77;30.47;99907.84;5012156;28;20198;-65
2022/06/19 08:34:54;;;;;;;3.20;2.60;;;;;;;31.62;29.78;99913.78;5014964;28;20631;-63
2022/06/19 08:37:21;;;;;;;2.07;1.83;;;;;;;31.76;30.81;99906.19;5006890;28;20198;-63
2022/06/19 08:39:47;;;;;;;4.13;2.90;;;;;;;31.99;30.32;99921.38;5015451;28;20264;-65
2022/06/19 08:42:41;;;;;;;1.60;1.50;;;;;;;32.15;28.16;99920.53;5014858;28;20202;-64
2022/06/19 08:45:29;;;;;;;5.70;1.27;;;;;;;32.13;28.07;99898.03;5010511;28;20194;-64
2022/06/19 08:48:21;;;;;;;1.43;1.43;;;;;;;32.35;28.33;99914.38;5014994;28;20202;-64
2022/06/19 08:50:55;;;;;;;1.53;1.43;;;;;;;32.67;27.12;99901.91;5013877;28;20268;-63
2022/06/19 08:53:41;;;;;;;1.90;1.50;;;;;;;32.92;29.27;99896.28;5015896;28;20194;-63
2022/06/19 08:56:14;;;;;;;2.67;1.93;;;;;;;33.08;28.48;99893.78;5015265;28;20612;-63
2022/06/19 08:58:46;;;;;;;1.83;1.73;;;;;;;33.03;27.33;99892.00;5015167;28;20259;-64
2022/06/19 09:01:24;;;;;;;2.53;2.40;;;;;;;33.20;29.86;99891.09;5015478;28;20244;-63
2022/06/19 09:06:52;;;;;;;2.00;1.40;;;;;;;33.44;27.19;99882.19;5015339;28;20654;-64
2022/06/19 09:09:32;;;;;;;1.60;1.33;;;;;;;33.26;27.07;99874.03;5015594;28;20206;-65
2022/06/19 09:12:11;;;;;;;2.35;1.70;;;;;;;33.14;28.24;99890.47;5015156;28;20204;-65
2022/06/19 09:14:46;;;;;;;2.07;1.80;;;;;;;33.15;26.49;99888.50;5015631;28;20324;-65
2022/06/19 09:17:24;;;;;;;2.25;1.52;;;;;;;32.93;28.96;99880.56;5014730;28;20609;-65
2022/06/19 09:19:57;;;;;;;4.10;1.23;;;;;;;32.28;28.33;99888.44;5014863;28;20201;-64
2022/06/19 09:22:46;;;;;;;3.80;1.57;;;;;;;32.56;29.75;99879.47;5014808;28;20244;-65
2022/06/19 09:25:28;;;;;;;7.63;4.13;;;;;;;32.53;28.79;99877.38;5014937;28;20241;-65
2022/06/19 09:28:01;;;;;;;2.20;2.00;;;;;;;32.35;29.13;99859.34;5014053;28;20190;-66
2022/06/19 09:30:33;;;;;;;5.73;3.07;;;;;;;32.72;29.83;99871.44;5014662;28;20637;-64
2022/06/19 09:33:06;;;;;;;4.30;2.00;;;;;;;32.73;28.90;99871.13;5014654;28;20190;-64
2022/06/19 09:35:37;;;;;;;2.30;2.10;;;;;;;32.18;29.19;99886.88;5014737;28;20193;-65
2022/06/19 09:38:10;;;;;;;3.93;1.40;;;;;;;32.28;28.94;99874.69;5012857;28;20736;-64
2022/06/19 09:40:41;;;;;;;1.77;1.67;;;;;;;32.49;28.11;99872.84;5014178;28;20278;-64
2022/06/19 09:43:12;;;;;;;1.77;1.30;;;;;;;32.37;28.55;99872.75;5012800;28;20217;-64
2022/06/19 09:45:43;;;;;;;5.13;2.63;;;;;;;32.18;31.39;99864.06;5012900;28;20314;-63
2022/06/19 09:48:20;;;;;;;1.93;1.83;;;;;;;31.86;31.04;99868.22;5014146;28;20186;-64
2022/06/19 09:50:50;;;;;;;6.03;2.20;;;;;;;32.09;30.55;99875.09;5014764;28;20193;-63
2022/06/19 09:53:20;;;;;;;3.30;2.70;;;;;;;32.31;29.95;99863.91;5014205;28;20600;-63
2022/06/19 09:55:52;;;;;;;7.30;2.00;;;;;;;32.59;28.70;99867.00;5014094;28;20267;-78
2022/06/19 09:58:25;;;;;;;2.50;1.50;;;;;;;32.81;29.57;99856.53;5014932;28;20625;-76
2022/06/19 10:00:57;;;;;;;3.60;1.50;;;;;;;32.61;29.60;99873.78;5014178;28;20194;-76
2022/06/19 10:03:31;;;;;;;5.50;1.83;;;;;;;32.88;27.97;99861.50;5014337;28;20192;-77
2022/06/19 10:06:03;;;;;;;2.85;1.83;;;;;;;33.13;28.34;99866.84;5014462;28;20186;-77
2022/06/19 10:08:40;;;;;;;2.77;1.60;;;;;;;32.74;30.38;99856.22;5013368;28;20571;-75
2022/06/19 10:11:11;;;;;;;2.33;1.40;;;;;;;32.73;29.00;99860.13;5001805;28;20195;-77
2022/06/19 10:13:44;;;;;;;1.30;1.20;;;;;;;32.84;27.62;99861.38;4993506;28;20575;-78
2022/06/19 10:16:21;;;;;;;2.77;1.40;;;;;;;33.17;26.79;99850.44;4995133;28;20183;-77
2022/06/19 10:18:53;;;;;;;2.17;1.40;;;;;;;33.12;26.74;99851.44;4994221;28;20195;-77
2022/06/19 10:24:20;;;;;;;6.17;1.60;;;;;;;32.74;26.38;99845.22;5010444;28;20205;-79
2022/06/19 10:26:53;;;;;;;2.17;1.23;;;;;;;32.71;26.12;99837.59;5023397;28;20202;-66
2022/06/19 10:29:36;;;;;;;2.15;1.30;;;;;;;32.28;26.65;99842.50;5013155;28;20767;-67
2022/06/19 10:32:21;;;;;;;2.23;1.30;;;;;;;32.01;27.70;99837.44;5013414;28;20644;-66
2022/06/19 10:35:00;;;;;;;2.23;2.13;;;;;;;32.17;28.01;99824.75;5013512;28;20650;-67
2022/06/19 10:37:36;;;;;;;1.30;1.30;;;;;;;31.46;29.31;99820.09;5013448;28;20190;-66
2022/06/19 10:40:15;;;;;;;1.07;1.07;;;;;;;30.75;29.88;99815.22;5013198;28;20193;-67
2022/06/19 10:42:51;;;;;;;1.60;1.53;;;;;;;30.79;29.64;99824.38;5013408;28;20278;-66
2022/06/19 10:45:33;;;;;;;5.40;1.37;;;;;;;30.57;31.72;99816.25;5014180;28;20225;-67
2022/06/19 10:48:13;;;;;;;1.93;1.37;;;;;;;30.54;29.35;99814.16;5013513;28;20606;-66
2022/06/19 10:50:48;;;;;;;2.27;1.40;;;;;;;30.86;29.97;99818.47;5013771;28;20708;-66
2022/06/19 10:53:42;;;;;;;4.23;2.30;;;;;;;30.72;29.75;99815.03;5013782;28;20189;-66
2022/06/19 10:56:16;;;;;;;1.87;1.77;;;;;;;30.84;30.39;99807.78;5013450;28;20190;-66
2022/06/19 10:58:45;;;;;;;2.23;1.70;;;;;;;30.85;29.37;99809.41;5013125;28;20256;-66
2022/06/19 11:04:06;;;;;;;5.70;1.83;;;;;;;30.88;28.77;99807.94;5013195;28;20678;-66
2022/06/19 11:04:09;;;;;;;1.40;1.30;;;;;;;30.93;29.32;99802.31;5012367;28;20642;-66
2022/06/19 11:06:41;;;;;;;3.50;3.07;;;;;;;30.94;30.79;99801.97;5004263;28;20194;-67
2022/06/19 11:09:11;;;;;;;4.87;4.47;;;;;;;30.92;28.88;99809.75;5001056;28;20265;-66
2022/06/19 11:11:39;;;;;;;1.53;1.50;;;;;;;30.93;29.75;99805.88;5002223;28;20190;-66
2022/06/19 11:14:09;;;;;;;1.30;1.20;;;;;;;30.70;29.32;99800.84;5002238;28;20306;-66
2022/06/19 11:16:53;;;;;;;2.27;1.30;;;;;;;30.99;28.29;99793.56;5001309;28;20241;-65
2022/06/19 11:19:35;;;;;;;2.90;2.70;;;;;;;30.97;28.55;99793.13;4995746;28;20194;-66
2022/06/19 11:22:07;;;;;;;1.93;1.60;;;;;;;31.27;30.08;99788.63;4993174;28;20264;-65
2022/06/19 11:24:37;;;;;;;3.80;1.50;;;;;;;31.19;29.52;99786.66;4993921;28;20186;-65
2022/06/19 11:27:04;;;;;;;1.93;1.50;;;;;;;31.18;31.17;99785.00;4993216;28;20198;-65
2022/06/19 11:29:32;;;;;;;1.33;1.20;;;;;;;31.04;29.99;99790.69;4992754;28;20650;-66
2022/06/19 11:32:10;;;;;;;3.87;1.40;;;;;;;30.89;29.66;99784.84;4992733;28;20195;-65
2022/06/19 11:34:48;;;;;;;1.67;1.57;;;;;;;30.57;30.11;99791.56;4993157;28;20190;-64
2022/06/19 11:37:21;;;;;;;1.30;1.20;;;;;;;30.39;29.87;99789.94;4992779;28;20277;-65
2022/06/19 11:39:51;;;;;;;1.30;1.20;;;;;;;30.61;30.00;99792.56;4993905;28;20195;-65
2022/06/19 11:42:28;;;;;;;1.23;1.10;;;;;;;30.38;29.21;99788.28;4992707;28;20198;-64
2022/06/19 11:44:58;;;;;;;2.73;1.47;;;;;;;30.55;30.12;99791.09;4992803;28;20614;-64
2022/06/19 11:47:27;;;;;;;1.37;1.27;;;;;;;30.27;29.64;99786.16;4992517;28;20198;-65
2022/06/19 11:50:15;;;;;;;2.20;1.30;;;;;;;30.09;31.44;99774.31;4992864;28;20226;-65
2022/06/19 11:52:49;;;;;;;1.33;1.00;;;;;;;30.42;30.02;99781.03;4992588;28;20717;-64
2022/06/19 11:55:22;;;;;;;1.20;1.20;;;;;;;30.33;29.96;99774.75;4993455;28;20584;-64
2022/06/19 11:57:51;;;;;;;1.13;1.10;;;;;;;30.44;29.43;99769.75;4992802;28;20191;-64